Terminal Aerodrome Forecast
Issued by NWS

Home | Current Version | Previous Version | Text Only | Print | Product List | Glossary On
Versions: 1 2 3 4 5 6 7 8 9 10 11 12 13 14 15 16 17 18 19 20 21 22 23 24
000
FTUS46 KOTX 280520
TAFMWH
TAF
KMWH 280520Z 2806/2906 22006KT P6SM BKN250
     FM280800 VRB04KT P6SM BKN150 OVC200
     FM281200 16006KT 6SM FU HZ BKN150 OVC200
     FM281600 21010KT P6SM SCT120 BKN150 OVC180
     FM281900 21010G18KT P6SM SCT100 BKN150 OVC180
     FM290100 19007KT P6SM SCT080 BKN120 OVC200=

USA.gov is the U.S. government's official web portal to all federal, state and local government web resources and services.